Time;durP1;ratioP1;P1;durP2;ratioP2;P2;SDS_P1;SDS_P2;PMS_P1;PMS_P2;Temp;Humidity;BMP_temperature;BMP_pressure;BME280_temperature;BME280_humidity;BME280_pressure;Samples;Min_cycle;Max_cycle;Signal;HPM_P1;HPM_P2
2023/04/20 00:00:16;;;;;;;;;;;10.80;81.00;;;;;;5050048;28;20297;-71
2023/04/20 00:02:42;;;;;;;;;;;10.80;80.50;;;;;;5049892;28;19913;-71
2023/04/20 00:05:08;;;;;;;;;;;10.80;80.50;;;;;;5049997;28;20009;-71
2023/04/20 00:07:34;;;;;;;;;;;10.70;80.50;;;;;;5049856;28;19959;-71
2023/04/20 00:10:01;;;;;;;;;;;10.70;80.50;;;;;;5049839;28;19982;-71
2023/04/20 00:12:26;;;;;;;;;;;10.70;80.50;;;;;;5049735;28;19974;-71
2023/04/20 00:14:52;;;;;;;;;;;10.70;80.50;;;;;;5049735;28;20114;-71
2023/04/20 00:17:18;;;;;;;;;;;10.60;80.40;;;;;;5049693;28;19916;-71
2023/04/20 00:19:43;;;;;;;;;;;10.60;80.40;;;;;;5049639;28;19919;-71
2023/04/20 00:22:09;;;;;;;;;;;10.60;80.40;;;;;;5049638;28;20300;-71
2023/04/20 00:24:35;;;;;;;;;;;10.60;80.40;;;;;;5031809;28;20376;-71
2023/04/20 00:27:00;;;;;;;;;;;10.50;80.30;;;;;;5049599;28;19936;-71
2023/04/20 00:29:26;;;;;;;;;;;10.50;80.30;;;;;;5049460;28;20456;-71
2023/04/20 00:31:51;;;;;;;;;;;10.50;80.30;;;;;;5031224;28;19917;-71
2023/04/20 00:34:17;;;;;;;;;;;10.50;80.30;;;;;;5049589;28;20288;-71
2023/04/20 00:36:43;;;;;;;;;;;10.50;80.30;;;;;;5049352;28;19959;-71
2023/04/20 00:39:09;;;;;;;;;;;10.40;80.30;;;;;;5049237;28;19913;-71
2023/04/20 00:41:34;;;;;;;;;;;10.40;80.40;;;;;;5049340;28;19917;-71
2023/04/20 00:44:00;;;;;;;;;;;10.40;80.40;;;;;;5049256;28;19982;-71
2023/04/20 00:46:26;;;;;;;;;;;10.40;80.30;;;;;;5049783;28;19913;-71
2023/04/20 00:48:52;;;;;;;;;;;10.30;80.30;;;;;;5049082;28;19935;-71
2023/04/20 00:51:18;;;;;;;;;;;10.30;80.20;;;;;;5049012;28;20131;-71
2023/04/20 00:53:44;;;;;;;;;;;10.30;80.30;;;;;;5031063;28;20007;-71
2023/04/20 00:56:11;;;;;;;;;;;10.30;80.30;;;;;;5048971;28;20011;-71
2023/04/20 00:58:37;;;;;;;;;;;10.20;80.20;;;;;;5048867;28;19909;-71
2023/04/20 01:01:03;;;;;;;;;;;10.20;80.20;;;;;;5048835;28;20349;-71
2023/04/20 01:03:29;;;;;;;;;;;10.20;80.20;;;;;;5049050;28;19913;-71
2023/04/20 01:05:55;;;;;;;;;;;10.20;80.30;;;;;;5048971;28;19920;-71
2023/04/20 01:08:24;;;;;;;;;;;10.10;80.20;;;;;;5048917;28;19917;-71
2023/04/20 01:10:50;;;;;;;;;;;10.10;80.20;;;;;;5048736;28;19909;-71
2023/04/20 01:13:15;;;;;;;;;;;10.10;80.10;;;;;;5048466;28;19993;-71
2023/04/20 01:15:41;;;;;;;;;;;10.00;80.10;;;;;;5048524;28;19921;-71
2023/04/20 01:18:08;;;;;;;;;;;10.00;80.00;;;;;;5048551;28;19913;-71
2023/04/20 01:20:34;;;;;;;;;;;10.00;80.00;;;;;;5048839;28;19917;-71
2023/04/20 01:22:59;;;;;;;;;;;10.00;80.00;;;;;;5030704;28;19923;-71
2023/04/20 01:25:25;;;;;;;;;;;10.00;80.00;;;;;;5048379;28;20075;-71
2023/04/20 01:27:50;;;;;;;;;;;9.90;80.00;;;;;;5048390;28;19956;-71
2023/04/20 01:30:16;;;;;;;;;;;9.90;80.00;;;;;;5048224;28;19935;-71
2023/04/20 01:32:42;;;;;;;;;;;9.90;79.90;;;;;;5048050;28;19974;-71
2023/04/20 01:35:08;;;;;;;;;;;9.90;80.00;;;;;;5048346;28;19927;-71
2023/04/20 01:37:34;;;;;;;;;;;9.80;80.00;;;;;;5030393;28;19912;-71
2023/04/20 01:39:59;;;;;;;;;;;9.80;80.00;;;;;;5048169;28;19923;-71
2023/04/20 01:42:25;;;;;;;;;;;9.80;80.10;;;;;;5048009;28;19909;-71
2023/04/20 01:44:51;;;;;;;;;;;9.80;80.10;;;;;;5048096;28;20373;-71
2023/04/20 01:47:17;;;;;;;;;;;9.70;80.00;;;;;;5048302;28;19912;-71
2023/04/20 01:49:42;;;;;;;;;;;9.70;80.00;;;;;;5048252;28;19908;-71
2023/04/20 01:52:08;;;;;;;;;;;9.70;80.00;;;;;;5048013;28;20012;-71
2023/04/20 01:54:33;;;;;;;;;;;9.70;80.00;;;;;;5047946;28;20004;-71
2023/04/20 01:56:59;;;;;;;;;;;9.70;80.00;;;;;;5048253;28;19913;-71
2023/04/20 01:59:25;;;;;;;;;;;9.70;79.90;;;;;;5047924;28;19919;-71
2023/04/20 02:01:50;;;;;;;;;;;9.70;80.00;;;;;;5030378;28;19913;-71
2023/04/20 02:04:16;;;;;;;;;;;9.70;80.00;;;;;;5048063;28;19917;-71
2023/04/20 02:06:42;;;;;;;;;;;9.70;80.00;;;;;;5048027;28;20361;-71
2023/04/20 02:09:08;;;;;;;;;;;9.60;79.90;;;;;;5047938;28;19917;-71
2023/04/20 02:11:34;;;;;;;;;;;9.60;79.80;;;;;;5029750;28;19913;-71
2023/04/20 02:13:59;;;;;;;;;;;9.60;79.70;;;;;;5047959;28;19913;-71
2023/04/20 02:16:28;;;;;;;;;;;9.60;79.70;;;;;;5047974;28;19955;-71
2023/04/20 02:18:53;;;;;;;;;;;9.50;79.80;;;;;;5047984;28;20324;-71
2023/04/20 02:21:19;;;;;;;;;;;9.50;79.70;;;;;;5029997;28;19913;-71
2023/04/20 02:23:45;;;;;;;;;;;9.50;79.70;;;;;;5048279;28;19909;-71
2023/04/20 02:26:10;;;;;;;;;;;9.40;79.70;;;;;;5048121;28;20453;-71
2023/04/20 02:28:36;;;;;;;;;;;9.40;79.70;;;;;;5047798;28;19917;-71
2023/04/20 02:31:02;;;;;;;;;;;9.40;79.70;;;;;;5029906;28;20419;-71
2023/04/20 02:33:27;;;;;;;;;;;9.40;79.80;;;;;;5029910;28;19928;-71
2023/04/20 02:35:53;;;;;;;;;;;9.30;79.70;;;;;;5030043;28;19956;-71
2023/04/20 02:38:18;;;;;;;;;;;9.30;79.60;;;;;;5029825;28;19913;-71
2023/04/20 02:40:44;;;;;;;;;;;9.30;79.60;;;;;;5048023;28;19967;-71
2023/04/20 02:43:09;;;;;;;;;;;9.20;79.60;;;;;;5047715;28;20380;-71
2023/04/20 02:45:35;;;;;;;;;;;9.20;79.60;;;;;;5047807;28;19952;-71
2023/04/20 02:48:01;;;;;;;;;;;9.20;79.70;;;;;;5047805;28;19920;-71
2023/04/20 02:50:26;;;;;;;;;;;9.10;79.70;;;;;;5047584;28;19913;-71
2023/04/20 02:52:52;;;;;;;;;;;9.10;79.70;;;;;;5029876;28;20273;-71
2023/04/20 02:55:17;;;;;;;;;;;9.00;79.70;;;;;;5030110;28;19920;-71
2023/04/20 02:57:43;;;;;;;;;;;8.90;79.70;;;;;;5047987;28;20346;-71
2023/04/20 03:00:12;;;;;;;;;;;8.80;79.70;;;;;;5047566;28;19920;-71
2023/04/20 03:02:37;;;;;;;;;;;8.80;79.80;;;;;;5047671;28;19913;-71
2023/04/20 03:05:03;;;;;;;;;;;8.80;79.90;;;;;;5029751;28;20081;-71
2023/04/20 03:07:29;;;;;;;;;;;8.70;79.90;;;;;;5029787;28;19909;-71
2023/04/20 03:09:55;;;;;;;;;;;8.80;79.90;;;;;;5047623;28;20372;-71
2023/04/20 03:12:21;;;;;;;;;;;8.80;79.90;;;;;;5047396;28;19932;-71
2023/04/20 03:14:47;;;;;;;;;;;8.80;79.90;;;;;;5029613;28;19915;-71
2023/04/20 03:17:12;;;;;;;;;;;8.80;79.80;;;;;;5029505;28;20007;-71
2023/04/20 03:19:38;;;;;;;;;;;8.80;79.80;;;;;;5047496;28;19913;-71
2023/04/20 03:22:03;;;;;;;;;;;8.80;79.70;;;;;;5047431;28;19917;-71
2023/04/20 03:24:29;;;;;;;;;;;8.80;79.70;;;;;;5050394;28;19920;-71
2023/04/20 03:26:55;;;;;;;;;;;8.80;79.70;;;;;;5050901;28;20011;-71
2023/04/20 03:29:20;;;;;;;;;;;8.80;79.60;;;;;;5050992;28;20270;-71
2023/04/20 03:31:46;;;;;;;;;;;8.80;79.60;;;;;;5050475;28;20421;-71
2023/04/20 03:34:11;;;;;;;;;;;8.80;79.50;;;;;;5033042;28;19917;-71
2023/04/20 03:36:37;;;;;;;;;;;8.70;79.40;;;;;;5050711;28;19958;-71
2023/04/20 03:39:03;;;;;;;;;;;8.70;79.40;;;;;;5050717;28;19983;-71
2023/04/20 03:41:29;;;;;;;;;;;8.70;79.40;;;;;;5050660;28;19909;-71
2023/04/20 03:43:55;;;;;;;;;;;8.70;79.40;;;;;;5050737;28;20277;-71
2023/04/20 03:46:21;;;;;;;;;;;8.60;79.40;;;;;;5032657;28;19916;-71
2023/04/20 03:48:46;;;;;;;;;;;8.60;79.40;;;;;;5050387;28;19924;-71
2023/04/20 03:51:12;;;;;;;;;;;8.60;79.50;;;;;;5050544;28;19923;-71
2023/04/20 03:53:37;;;;;;;;;;;8.60;79.40;;;;;;5050368;28;20034;-72
2023/04/20 03:56:03;;;;;;;;;;;8.60;79.50;;;;;;5050618;28;20323;-72
2023/04/20 03:58:29;;;;;;;;;;;8.60;79.40;;;;;;5050416;28;20024;-72
2023/04/20 04:01:02;;;;;;;;;;;8.60;79.40;;;;;;5050375;28;19939;-72
2023/04/20 04:03:27;;;;;;;;;;;8.50;79.30;;;;;;5050322;28;19995;-71
2023/04/20 04:05:53;;;;;;;;;;;8.50;79.40;;;;;;5050264;28;20388;-71
2023/04/20 04:08:18;;;;;;;;;;;8.50;79.40;;;;;;5050145;28;19909;-72
2023/04/20 04:10:44;;;;;;;;;;;8.50;79.40;;;;;;5050239;28;19960;-72
2023/04/20 04:13:09;;;;;;;;;;;8.50;79.40;;;;;;5050133;28;20453;-72
2023/04/20 04:15:35;;;;;;;;;;;8.50;79.40;;;;;;5050174;28;19934;-72
2023/04/20 04:18:00;;;;;;;;;;;8.50;79.40;;;;;;5050210;28;19920;-72
2023/04/20 04:20:26;;;;;;;;;;;8.50;79.40;;;;;;5031993;28;19916;-72
2023/04/20 04:22:52;;;;;;;;;;;8.50;79.40;;;;;;5049988;28;19921;-72
2023/04/20 04:25:17;;;;;;;;;;;8.50;79.40;;;;;;5049857;28;20377;-72
2023/04/20 04:27:45;;;;;;;;;;;8.50;79.30;;;;;;5049864;28;19924;-72
2023/04/20 04:30:11;;;;;;;;;;;8.50;79.20;;;;;;5049726;28;20369;-72
2023/04/20 04:32:36;;;;;;;;;;;8.50;79.20;;;;;;5049523;28;19925;-72
2023/04/20 04:35:02;;;;;;;;;;;8.50;79.30;;;;;;5031574;28;19913;-72
2023/04/20 04:37:28;;;;;;;;;;;8.50;79.20;;;;;;5031952;28;19916;-72
2023/04/20 04:39:53;;;;;;;;;;;8.50;79.30;;;;;;5049385;28;19912;-72
2023/04/20 04:42:20;;;;;;;;;;;8.40;79.20;;;;;;5031899;28;19920;-72
2023/04/20 04:44:45;;;;;;;;;;;8.40;79.20;;;;;;5049660;28;19912;-72
2023/04/20 04:47:11;;;;;;;;;;;8.40;79.20;;;;;;5049520;28;19913;-71
2023/04/20 04:49:36;;;;;;;;;;;8.30;79.20;;;;;;5049071;28;19995;-72
2023/04/20 04:52:02;;;;;;;;;;;8.30;79.30;;;;;;5049216;28;19967;-72
2023/04/20 04:54:28;;;;;;;;;;;8.40;79.20;;;;;;5049140;28;19917;-71
2023/04/20 04:56:53;;;;;;;;;;;8.30;79.20;;;;;;5049077;28;19913;-71
2023/04/20 04:59:19;;;;;;;;;;;8.40;79.30;;;;;;5048974;28;19912;-71
2023/04/20 05:01:45;;;;;;;;;;;8.40;79.20;;;;;;5049126;28;19913;-72
2023/04/20 05:04:10;;;;;;;;;;;8.40;79.20;;;;;;5049480;28;19913;-72
2023/04/20 05:06:36;;;;;;;;;;;8.40;79.10;;;;;;5049072;28;20287;-72
2023/04/20 05:09:01;;;;;;;;;;;8.40;79.10;;;;;;5048887;28;19916;-72
2023/04/20 05:11:27;;;;;;;;;;;8.40;79.10;;;;;;5048842;28;19948;-72
2023/04/20 05:13:53;;;;;;;;;;;8.40;79.20;;;;;;5048719;28;20377;-71
2023/04/20 05:16:19;;;;;;;;;;;8.40;79.20;;;;;;5048850;28;19913;-72
2023/04/20 05:18:44;;;;;;;;;;;8.40;79.30;;;;;;5048444;28;19954;-72
2023/04/20 05:21:10;;;;;;;;;;;8.40;79.30;;;;;;5048500;28;19913;-72
2023/04/20 05:23:36;;;;;;;;;;;8.40;79.30;;;;;;5048502;28;20075;-71
2023/04/20 05:26:01;;;;;;;;;;;8.40;79.20;;;;;;5030357;28;19978;-72
2023/04/20 05:28:27;;;;;;;;;;;8.50;79.30;;;;;;5048309;28;19920;-71
2023/04/20 05:30:54;;;;;;;;;;;8.50;79.30;;;;;;5030437;28;19916;-72
2023/04/20 05:33:20;;;;;;;;;;;8.50;79.30;;;;;;5026813;28;19960;-72
2023/04/20 05:35:47;;;;;;;;;;;8.50;79.40;;;;;;5027661;28;20252;-71
2023/04/20 05:38:13;;;;;;;;;;;8.40;79.30;;;;;;5028362;28;20000;-71
2023/04/20 05:40:39;;;;;;;;;;;8.50;79.40;;;;;;5028459;28;19944;-72
2023/04/20 05:43:04;;;;;;;;;;;8.50;79.50;;;;;;5028307;28;20282;-71
2023/04/20 05:45:32;;;;;;;;;;;8.50;79.50;;;;;;5027580;28;19920;-71
2023/04/20 05:47:58;;;;;;;;;;;8.50;79.50;;;;;;5027035;28;19942;-71
2023/04/20 05:50:24;;;;;;;;;;;8.50;79.50;;;;;;5028192;28;19921;-71
2023/04/20 05:52:50;;;;;;;;;;;8.60;79.50;;;;;;5028012;28;20313;-72
2023/04/20 05:55:17;;;;;;;;;;;8.60;79.50;;;;;;5028064;28;20344;-72
2023/04/20 05:57:42;;;;;;;;;;;8.60;79.50;;;;;;5028014;28;19913;-71
2023/04/20 06:00:10;;;;;;;;;;;8.60;79.50;;;;;;5027857;28;19963;-71
2023/04/20 06:02:35;;;;;;;;;;;8.70;79.50;;;;;;5010231;28;19925;-72
2023/04/20 06:05:01;;;;;;;;;;;8.70;79.50;;;;;;5028127;28;19909;-71
2023/04/20 06:07:27;;;;;;;;;;;8.70;79.60;;;;;;5028048;28;19925;-72
2023/04/20 06:09:53;;;;;;;;;;;8.80;79.70;;;;;;5026398;28;19986;-71
2023/04/20 06:12:18;;;;;;;;;;;8.80;79.70;;;;;;5027841;28;19924;-72
2023/04/20 06:14:44;;;;;;;;;;;8.80;79.70;;;;;;5027742;28;19913;-71
2023/04/20 06:17:10;;;;;;;;;;;8.80;79.70;;;;;;5026323;28;19913;-71
2023/04/20 06:19:35;;;;;;;;;;;8.90;79.80;;;;;;5027716;28;19952;-71
2023/04/20 06:22:05;;;;;;;;;;;8.90;79.80;;;;;;5026529;28;19960;-72
2023/04/20 06:24:30;;;;;;;;;;;8.90;79.80;;;;;;5027591;28;20390;-71
2023/04/20 06:26:56;;;;;;;;;;;9.00;79.90;;;;;;5027719;28;19952;-72
2023/04/20 06:29:21;;;;;;;;;;;9.10;79.90;;;;;;5026923;28;19909;-71
2023/04/20 06:31:47;;;;;;;;;;;9.20;79.90;;;;;;5027748;28;19919;-71
2023/04/20 06:34:13;;;;;;;;;;;9.20;79.80;;;;;;5047454;28;20011;-71
2023/04/20 06:36:42;;;;;;;;;;;9.30;79.90;;;;;;5047347;28;19952;-71
2023/04/20 06:39:10;;;;;;;;;;;9.30;79.80;;;;;;5029472;28;20246;-71
2023/04/20 06:41:36;;;;;;;;;;;9.40;79.90;;;;;;5047212;28;20284;-72
2023/04/20 06:44:01;;;;;;;;;;;9.40;79.90;;;;;;5046968;28;19909;-71
2023/04/20 06:46:27;;;;;;;;;;;9.40;79.90;;;;;;5047261;28;19987;-71
2023/04/20 06:48:53;;;;;;;;;;;9.50;79.90;;;;;;5047035;28;20075;-72
2023/04/20 06:51:18;;;;;;;;;;;9.50;79.90;;;;;;5047269;28;19913;-71
2023/04/20 06:53:44;;;;;;;;;;;9.60;79.90;;;;;;5012862;28;19993;-71
2023/04/20 06:56:11;;;;;;;;;;;9.60;79.90;;;;;;5029339;28;19913;-72
2023/04/20 06:58:36;;;;;;;;;;;9.60;80.00;;;;;;5050341;28;19913;-71
2023/04/20 07:01:02;;;;;;;;;;;9.80;80.10;;;;;;5050500;28;19928;-71
2023/04/20 07:03:27;;;;;;;;;;;9.90;80.10;;;;;;5050610;28;19919;-71
2023/04/20 07:05:53;;;;;;;;;;;10.00;80.20;;;;;;5032259;28;19917;-71
2023/04/20 07:08:19;;;;;;;;;;;10.20;80.20;;;;;;5050513;28;19996;-72
2023/04/20 07:10:44;;;;;;;;;;;10.30;80.30;;;;;;5050445;28;19909;-71
2023/04/20 07:13:10;;;;;;;;;;;10.40;80.50;;;;;;5032917;28;20028;-72
2023/04/20 07:15:35;;;;;;;;;;;10.60;80.70;;;;;;5050378;28;19969;-72
2023/04/20 07:18:01;;;;;;;;;;;11.00;81.10;;;;;;5050320;28;20392;-72
2023/04/20 07:20:27;;;;;;;;;;;11.20;80.30;;;;;;5032451;28;19962;-72
2023/04/20 07:22:52;;;;;;;;;;;11.40;80.20;;;;;;5050294;28;19963;-72
2023/04/20 07:25:18;;;;;;;;;;;11.60;80.30;;;;;;5032235;28;20013;-72
2023/04/20 07:27:44;;;;;;;;;;;11.70;80.10;;;;;;5050478;28;19943;-72
2023/04/20 07:30:10;;;;;;;;;;;11.90;80.30;;;;;;5031886;28;19913;-72
2023/04/20 07:32:36;;;;;;;;;;;12.20;81.00;;;;;;5050263;28;19928;-72
2023/04/20 07:35:02;;;;;;;;;;;12.90;81.50;;;;;;5050063;28;19909;-71
2023/04/20 07:37:28;;;;;;;;;;;13.70;81.50;;;;;;5049951;28;20365;-72
2023/04/20 07:39:54;;;;;;;;;;;14.00;80.40;;;;;;5031614;28;19924;-72
2023/04/20 07:42:20;;;;;;;;;;;14.20;80.30;;;;;;5032561;28;19916;-74
2023/04/20 07:44:46;;;;;;;;;;;14.50;80.80;;;;;;5049667;28;20068;-74
2023/04/20 07:47:11;;;;;;;;;;;15.00;81.40;;;;;;5049614;28;19924;-74
2023/04/20 07:49:39;;;;;;;;;;;16.00;82.40;;;;;;5049106;28;20262;-73
2023/04/20 07:52:05;;;;;;;;;;;16.90;81.90;;;;;;5049639;28;19924;-74
2023/04/20 07:54:31;;;;;;;;;;;17.80;81.20;;;;;;5050188;28;19909;-75
2023/04/20 07:56:57;;;;;;;;;;;18.30;81.00;;;;;;5025161;28;19917;-74
2023/04/20 07:59:23;;;;;;;;;;;18.70;81.20;;;;;;5041005;28;19916;-73
2023/04/20 08:01:49;;;;;;;;;;;19.10;81.10;;;;;;5040914;28;20394;-74
2023/04/20 08:04:15;;;;;;;;;;;19.60;81.20;;;;;;5038516;28;19909;-74
2023/04/20 08:06:40;;;;;;;;;;;20.10;81.40;;;;;;5038988;28;19917;-72
2023/04/20 08:09:06;;;;;;;;;;;20.00;80.50;;;;;;5031690;28;19967;-72
2023/04/20 08:11:32;;;;;;;;;;;19.90;81.50;;;;;;5038088;28;19923;-72
2023/04/20 08:13:58;;;;;;;;;;;20.20;82.20;;;;;;5038190;28;20350;-73
2023/04/20 08:16:23;;;;;;;;;;;20.80;82.60;;;;;;5041124;28;20353;-72
2023/04/20 08:18:49;;;;;;;;;;;21.40;82.20;;;;;;5038298;28;19971;-73
2023/04/20 08:21:14;;;;;;;;;;;21.80;82.40;;;;;;5022263;28;20324;-72
2023/04/20 08:23:40;;;;;;;;;;;22.20;81.90;;;;;;5038640;28;19917;-73
2023/04/20 08:26:05;;;;;;;;;;;22.30;81.80;;;;;;5037443;28;19921;-72
2023/04/20 08:28:31;;;;;;;;;;;22.30;81.60;;;;;;5019935;28;20015;-72
2023/04/20 08:30:57;;;;;;;;;;;22.20;82.00;;;;;;5038505;28;20328;-72
2023/04/20 08:33:22;;;;;;;;;;;22.00;82.40;;;;;;5039200;28;19980;-73
2023/04/20 08:35:50;;;;;;;;;;;21.90;82.60;;;;;;5037719;28;19924;-73
2023/04/20 08:38:16;;;;;;;;;;;22.00;82.70;;;;;;5037165;28;20358;-73
2023/04/20 08:40:42;;;;;;;;;;;21.60;82.80;;;;;;5039203;28;19958;-72
2023/04/20 08:43:07;;;;;;;;;;;21.40;84.00;;;;;;5038646;28;20017;-72
2023/04/20 08:45:33;;;;;;;;;;;21.50;84.80;;;;;;5038564;28;20388;-72
2023/04/20 08:48:01;;;;;;;;;;;21.70;84.70;;;;;;5039845;28;19981;-72
2023/04/20 08:50:27;;;;;;;;;;;21.60;84.20;;;;;;5038393;28;19910;-72
2023/04/20 08:52:53;;;;;;;;;;;21.60;84.70;;;;;;5022684;28;19917;-72
2023/04/20 08:55:19;;;;;;;;;;;21.70;84.90;;;;;;5037174;28;19924;-72
2023/04/20 08:57:46;;;;;;;;;;;22.00;85.30;;;;;;5038955;28;19961;-72
2023/04/20 09:00:13;;;;;;;;;;;22.30;84.70;;;;;;5032108;28;19959;-71
2023/04/20 09:02:49;;;;;;;;;;;22.40;84.40;;;;;;5039489;28;20010;-71
2023/04/20 09:05:23;;;;;;;;;;;22.40;84.90;;;;;;5037227;28;19909;-72
2023/04/20 09:07:55;;;;;;;;;;;22.70;85.10;;;;;;5037255;28;19935;-71
2023/04/20 09:10:22;;;;;;;;;;;22.70;84.30;;;;;;5021419;28;19928;-71
2023/04/20 09:12:48;;;;;;;;;;;22.60;85.40;;;;;;5042748;28;19913;-72
2023/04/20 09:15:24;;;;;;;;;;;22.80;85.10;;;;;;5037992;28;19909;-71
2023/04/20 09:17:49;;;;;;;;;;;23.00;85.00;;;;;;5037324;28;19952;-71
2023/04/20 09:20:15;;;;;;;;;;;22.80;84.50;;;;;;5020204;28;20006;-71
2023/04/20 09:22:40;;;;;;;;;;;22.80;85.70;;;;;;5038684;28;19917;-71
2023/04/20 09:25:16;;;;;;;;;;;23.10;85.20;;;;;;5019431;28;19952;-71
2023/04/20 09:27:41;;;;;;;;;;;23.20;84.50;;;;;;5014198;28;19928;-72
2023/04/20 09:30:08;;;;;;;;;;;23.10;85.20;;;;;;5036292;28;19917;-72
2023/04/20 09:32:34;;;;;;;;;;;23.10;85.10;;;;;;4999536;28;19929;-72
2023/04/20 09:35:00;;;;;;;;;;;22.90;85.30;;;;;;5043609;28;19908;-72
2023/04/20 09:37:25;;;;;;;;;;;22.80;85.60;;;;;;5032161;28;19925;-72
2023/04/20 09:39:54;;;;;;;;;;;22.60;85.90;;;;;;4997301;28;20369;-72
2023/04/20 09:42:20;;;;;;;;;;;22.80;86.40;;;;;;5031351;28;19909;-72
2023/04/20 09:44:47;;;;;;;;;;;23.10;86.80;;;;;;5037361;28;19999;-72
2023/04/20 09:47:17;;;;;;;;;;;23.60;86.60;;;;;;5018913;28;19921;-72
2023/04/20 09:49:46;;;;;;;;;;;24.20;86.20;;;;;;5038797;28;19917;-72
2023/04/20 09:52:14;;;;;;;;;;;24.30;84.90;;;;;;5018999;28;19927;-72
2023/04/20 09:54:41;;;;;;;;;;;24.20;85.50;;;;;;5037538;28;19978;-72
2023/04/20 09:57:06;;;;;;;;;;;24.10;85.50;;;;;;5036043;28;20320;-73
2023/04/20 09:59:32;;;;;;;;;;;24.10;85.30;;;;;;5037656;28;19944;-73
2023/04/20 10:01:57;;;;;;;;;;;23.90;85.50;;;;;;5036597;28;19984;-73
2023/04/20 10:04:23;;;;;;;;;;;23.80;85.80;;;;;;5028247;28;20451;-74
2023/04/20 10:07:02;;;;;;;;;;;23.60;86.10;;;;;;5028403;28;19913;-75
2023/04/20 10:09:27;;;;;;;;;;;23.80;86.60;;;;;;5028257;28;20314;-75
2023/04/20 10:12:03;;;;;;;;;;;23.60;86.00;;;;;;5028779;28;20011;-74
2023/04/20 10:14:30;;;;;;;;;;;23.80;87.20;;;;;;5028515;28;19917;-74
2023/04/20 10:17:00;;;;;;;;;;;24.10;86.70;;;;;;5027691;28;19936;-74
2023/04/20 10:19:42;;;;;;;;;;;24.50;86.50;;;;;;5027414;28;19920;-75
2023/04/20 10:22:09;;;;;;;;;;;24.80;86.30;;;;;;5028170;28;19913;-74
2023/04/20 10:24:36;;;;;;;;;;;25.30;86.50;;;;;;5028028;28;20031;-75
2023/04/20 10:27:02;;;;;;;;;;;25.70;85.70;;;;;;5028120;28;19951;-75
2023/04/20 10:29:28;;;;;;;;;;;25.80;85.40;;;;;;5028197;28;20044;-72
2023/04/20 10:31:54;;;;;;;;;;;25.50;85.30;;;;;;5029128;28;20335;-74
2023/04/20 10:34:30;;;;;;;;;;;25.40;85.60;;;;;;5014355;28;19914;-71
2023/04/20 10:37:05;;;;;;;;;;;25.30;85.20;;;;;;5014038;28;19916;-74
2023/04/20 10:39:31;;;;;;;;;;;25.10;85.70;;;;;;5032062;28;19909;-72
2023/04/20 10:41:57;;;;;;;;;;;25.10;86.20;;;;;;5031804;28;20242;-72
2023/04/20 10:44:23;;;;;;;;;;;25.00;86.00;;;;;;5032165;28;19913;-74
2023/04/20 10:46:52;;;;;;;;;;;25.00;86.10;;;;;;5031930;28;19913;-72
2023/04/20 10:49:18;;;;;;;;;;;25.00;86.10;;;;;;5031175;28;19916;-71
2023/04/20 10:51:50;;;;;;;;;;;24.80;85.70;;;;;;5014187;28;20281;-73
2023/04/20 10:54:15;;;;;;;;;;;24.70;85.60;;;;;;5031448;28;20543;-72
2023/04/20 10:56:42;;;;;;;;;;;24.30;86.10;;;;;;5031298;28;19996;-73
2023/04/20 10:59:08;;;;;;;;;;;24.10;85.70;;;;;;5031400;28;19948;-72
2023/04/20 11:01:34;;;;;;;;;;;23.90;86.40;;;;;;5030874;28;21049;-72
2023/04/20 11:04:00;;;;;;;;;;;24.00;86.70;;;;;;5031146;28;19992;-72
2023/04/20 11:06:26;;;;;;;;;;;24.00;86.10;;;;;;5006615;28;20368;-69
2023/04/20 11:08:52;;;;;;;;;;;24.00;86.70;;;;;;5049199;28;19924;-70
2023/04/20 11:11:23;;;;;;;;;;;23.90;86.00;;;;;;5020840;28;19910;-70
2023/04/20 11:13:49;;;;;;;;;;;23.80;86.50;;;;;;5031425;28;19921;-70
2023/04/20 11:16:15;;;;;;;;;;;23.60;86.70;;;;;;5039587;28;20358;-70
2023/04/20 11:18:48;;;;;;;;;;;23.70;86.70;;;;;;5039547;28;20301;-72
2023/04/20 11:21:15;;;;;;;;;;;23.80;87.00;;;;;;5031380;28;19945;-72
2023/04/20 11:23:41;;;;;;;;;;;24.00;87.30;;;;;;5031294;28;19921;-71
2023/04/20 11:26:07;;;;;;;;;;;24.50;86.70;;;;;;5031234;28;19909;-76
2023/04/20 11:28:33;;;;;;;;;;;24.40;85.60;;;;;;5012915;28;19917;-73
2023/04/20 11:30:59;;;;;;;;;;;24.00;86.40;;;;;;5031377;28;19914;-72
2023/04/20 11:33:29;;;;;;;;;;;24.00;86.30;;;;;;5030587;28;19932;-70
2023/04/20 11:35:55;;;;;;;;;;;23.70;86.40;;;;;;5012965;28;20357;-71
2023/04/20 11:38:47;;;;;;;;;;;23.80;87.00;;;;;;5030540;28;19981;-71
2023/04/20 11:41:12;;;;;;;;;;;23.80;86.70;;;;;;5028050;28;19919;-71
2023/04/20 11:43:38;;;;;;;;;;;23.80;86.70;;;;;;5029409;28;19913;-71
2023/04/20 11:46:12;;;;;;;;;;;23.90;86.90;;;;;;5030625;28;20276;-71
2023/04/20 11:48:37;;;;;;;;;;;24.20;86.80;;;;;;5012511;28;20411;-72
2023/04/20 11:51:03;;;;;;;;;;;24.20;86.30;;;;;;5030337;28;19917;-72
2023/04/20 11:53:28;;;;;;;;;;;24.30;87.00;;;;;;5030505;28;19975;-72
2023/04/20 11:55:54;;;;;;;;;;;24.60;86.80;;;;;;5030326;28;19987;-71
2023/04/20 11:58:20;;;;;;;;;;;24.60;86.50;;;;;;5030432;28;19913;-71
2023/04/20 12:00:45;;;;;;;;;;;24.60;86.60;;;;;;5030393;28;20357;-72
2023/04/20 12:03:11;;;;;;;;;;;24.30;86.10;;;;;;5030199;28;19929;-72
2023/04/20 12:05:36;;;;;;;;;;;24.00;86.80;;;;;;5012455;28;19933;-72
2023/04/20 12:08:02;;;;;;;;;;;23.80;87.10;;;;;;5030389;28;19913;-72
2023/04/20 12:10:28;;;;;;;;;;;23.70;87.30;;;;;;5030383;28;19914;-71
2023/04/20 12:12:53;;;;;;;;;;;23.90;87.00;;;;;;5012614;28;19928;-71
2023/04/20 12:15:19;;;;;;;;;;;24.10;86.80;;;;;;5030020;28;19929;-71
2023/04/20 12:17:44;;;;;;;;;;;24.40;86.60;;;;;;5034429;28;19971;-71
2023/04/20 12:20:10;;;;;;;;;;;24.50;85.80;;;;;;5041246;28;19921;-71
2023/04/20 12:22:36;;;;;;;;;;;24.10;85.60;;;;;;5041663;28;19963;-70
2023/04/20 12:25:03;;;;;;;;;;;23.90;86.70;;;;;;5041768;28;20396;-71
2023/04/20 12:27:28;;;;;;;;;;;24.00;86.90;;;;;;5040209;28;19924;-71
2023/04/20 12:29:54;;;;;;;;;;;24.00;86.60;;;;;;5038163;28;19914;-71
2023/04/20 12:32:19;;;;;;;;;;;24.00;86.00;;;;;;5022784;28;20427;-71
2023/04/20 12:34:45;;;;;;;;;;;24.00;85.60;;;;;;5050122;28;19913;-75
2023/04/20 12:37:11;;;;;;;;;;;23.80;85.40;;;;;;5050101;28;20285;-72
2023/04/20 12:39:36;;;;;;;;;;;23.70;85.90;;;;;;5049865;28;19917;-71
2023/04/20 12:42:02;;;;;;;;;;;23.30;86.20;;;;;;5031387;28;20431;-72
2023/04/20 12:44:28;;;;;;;;;;;23.10;86.90;;;;;;5031467;28;20293;-71
2023/04/20 12:46:53;;;;;;;;;;;23.10;87.20;;;;;;5049048;28;19916;-71
2023/04/20 12:49:19;;;;;;;;;;;23.00;86.70;;;;;;5031115;28;20365;-71
2023/04/20 12:51:45;;;;;;;;;;;22.80;86.90;;;;;;5031252;28;19916;-71
2023/04/20 12:54:10;;;;;;;;;;;22.80;86.90;;;;;;5049033;28;20467;-72
2023/04/20 12:56:36;;;;;;;;;;;22.90;86.50;;;;;;5048556;28;20276;-77
2023/04/20 12:59:02;;;;;;;;;;;22.90;86.40;;;;;;5048885;28;19908;-72
2023/04/20 13:01:27;;;;;;;;;;;22.90;86.70;;;;;;5049095;28;19909;-71
2023/04/20 13:03:53;;;;;;;;;;;23.10;86.50;;;;;;5048363;28;19917;-72
2023/04/20 13:06:19;;;;;;;;;;;22.90;86.00;;;;;;5048110;28;20359;-72
2023/04/20 13:08:45;;;;;;;;;;;22.70;86.30;;;;;;5049438;28;19916;-69
2023/04/20 13:11:11;;;;;;;;;;;22.30;86.00;;;;;;5049274;28;19916;-74
2023/04/20 13:13:36;;;;;;;;;;;22.10;87.00;;;;;;5031109;28;19974;-72
2023/04/20 13:16:02;;;;;;;;;;;22.10;86.70;;;;;;5049054;28;19996;-72
2023/04/20 13:18:27;;;;;;;;;;;21.90;86.30;;;;;;5048967;28;20006;-71
2023/04/20 13:20:53;;;;;;;;;;;21.60;86.20;;;;;;5031882;28;19923;-71
2023/04/20 13:23:19;;;;;;;;;;;21.10;86.50;;;;;;5049111;28;19931;-71
2023/04/20 13:25:44;;;;;;;;;;;21.00;87.30;;;;;;5030573;28;19931;-71
2023/04/20 13:28:11;;;;;;;;;;;21.20;87.20;;;;;;5049044;28;19955;-72
2023/04/20 13:30:36;;;;;;;;;;;21.10;86.60;;;;;;5049182;28;20562;-73
2023/04/20 13:33:02;;;;;;;;;;;20.70;86.10;;;;;;5047887;28;19925;-71
2023/04/20 13:35:28;;;;;;;;;;;20.40;85.60;;;;;;5048230;28;20300;-70
2023/04/20 13:37:53;;;;;;;;;;;20.10;85.20;;;;;;5024665;28;19990;-71
2023/04/20 13:40:19;;;;;;;;;;;19.80;84.50;;;;;;5033810;28;19924;-71
2023/04/20 13:42:44;;;;;;;;;;;19.50;84.00;;;;;;5037029;28;19913;-71
2023/04/20 13:45:10;;;;;;;;;;;19.20;83.80;;;;;;5013203;28;20343;-71
2023/04/20 13:47:37;;;;;;;;;;;18.90;83.50;;;;;;5028412;28;20307;-71
2023/04/20 13:50:03;;;;;;;;;;;18.70;83.30;;;;;;5010952;28;19913;-71
2023/04/20 13:52:29;;;;;;;;;;;18.30;83.20;;;;;;5015624;28;19921;-71
2023/04/20 13:54:54;;;;;;;;;;;18.00;83.30;;;;;;5037356;28;19909;-74
2023/04/20 13:57:20;;;;;;;;;;;17.70;83.30;;;;;;5019889;28;20009;-72
2023/04/20 13:59:45;;;;;;;;;;;17.50;83.30;;;;;;5033757;28;19993;-72
2023/04/20 14:02:11;;;;;;;;;;;17.20;82.70;;;;;;5033118;28;20392;-71
2023/04/20 14:04:36;;;;;;;;;;;16.90;82.90;;;;;;5037049;28;19970;-72
2023/04/20 14:07:02;;;;;;;;;;;16.70;83.00;;;;;;5036117;28;19966;-72
2023/04/20 14:09:29;;;;;;;;;;;16.60;83.10;;;;;;5041019;28;19995;-72
2023/04/20 14:11:56;;;;;;;;;;;16.60;82.80;;;;;;5048477;28;19909;-71
2023/04/20 14:14:22;;;;;;;;;;;16.60;82.60;;;;;;5048484;28;19940;-71